createdAt,value
2023-01-29T00:01:17.790Z,-1.80
2023-01-29T00:04:42.698Z,-1.80
2023-01-29T00:08:04.835Z,-1.80
2023-01-29T00:11:26.785Z,-1.80
2023-01-29T00:14:49.325Z,-1.80
2023-01-29T00:18:11.311Z,-1.80
2023-01-29T00:21:33.473Z,-1.80
2023-01-29T00:24:55.492Z,-1.80
2023-01-29T00:28:17.613Z,-1.80
2023-01-29T00:31:39.901Z,-1.80
2023-01-29T00:35:02.548Z,-1.90
2023-01-29T00:38:24.495Z,-2.00
2023-01-29T00:42:06.681Z,-2.00
2023-01-29T00:45:28.622Z,-2.00
2023-01-29T00:48:50.589Z,-2.10
2023-01-29T00:52:24.560Z,-2.20
2023-01-29T00:55:46.564Z,-2.20
2023-01-29T00:59:09.481Z,-2.20
2023-01-29T01:02:50.169Z,-2.20
2023-01-29T01:06:12.226Z,-2.30
2023-01-29T01:09:55.915Z,-2.20
2023-01-29T01:13:17.848Z,-2.20
2023-01-29T01:16:39.822Z,-2.20
2023-01-29T01:20:02.491Z,-2.30
2023-01-29T01:23:24.471Z,-2.30
2023-01-29T01:26:46.543Z,-2.30
2023-01-29T01:30:14.426Z,-2.40
2023-01-29T01:33:37.561Z,-2.30
2023-01-29T01:36:59.658Z,-2.40
2023-01-29T01:40:24.076Z,-2.30
2023-01-29T01:44:01.735Z,-2.30
2023-01-29T01:47:41.833Z,-2.40
2023-01-29T01:51:06.535Z,-2.50
2023-01-29T01:54:32.161Z,-2.50
2023-01-29T01:58:02.214Z,-2.50
2023-01-29T02:01:28.067Z,-2.60
2023-01-29T02:05:09.322Z,-2.60
2023-01-29T02:09:08.731Z,-2.60
2023-01-29T02:12:32.085Z,-2.60
2023-01-29T02:15:54.068Z,-2.60
2023-01-29T02:19:45.803Z,-2.60
2023-01-29T02:23:15.982Z,-2.60
2023-01-29T02:26:56.245Z,-2.60
2023-01-29T02:30:28.790Z,-2.70
2023-01-29T02:34:21.900Z,-2.70
2023-01-29T02:37:59.503Z,-2.80
2023-01-29T02:41:31.924Z,-2.80
2023-01-29T02:45:02.625Z,-2.90
2023-01-29T02:48:28.384Z,-2.90
2023-01-29T02:52:01.663Z,-2.90
2023-01-29T02:55:31.184Z,-2.80
2023-01-29T02:59:02.239Z,-2.80
2023-01-29T03:02:50.565Z,-2.80
2023-01-29T03:06:22.489Z,-2.80
2023-01-29T03:09:51.972Z,-2.80
2023-01-29T03:13:26.679Z,-2.70
2023-01-29T03:16:52.069Z,-2.70
2023-01-29T03:20:21.327Z,-2.60
2023-01-29T03:24:01.827Z,-2.60
2023-01-29T03:27:46.696Z,-2.50
2023-01-29T03:31:31.604Z,-2.30
2023-01-29T03:35:02.103Z,-2.10
2023-01-29T03:38:29.587Z,-1.90
2023-01-29T03:42:02.642Z,-1.80
2023-01-29T03:45:31.572Z,-1.70
2023-01-29T03:49:03.202Z,-1.60
2023-01-29T03:52:28.243Z,-1.50
2023-01-29T03:56:22.591Z,-1.30
2023-01-29T04:00:12.949Z,-1.10
2023-01-29T04:04:04.934Z,-1.00
2023-01-29T04:07:33.469Z,-0.90
2023-01-29T04:11:02.778Z,-0.70
2023-01-29T04:14:25.996Z,-0.60
2023-01-29T04:17:52.805Z,-0.50
2023-01-29T04:21:25.940Z,-0.50
2023-01-29T04:24:49.564Z,-0.50
2023-01-29T04:28:28.349Z,-0.50
2023-01-29T04:32:14.512Z,-0.60
2023-01-29T04:36:07.208Z,-0.70
2023-01-29T04:39:45.577Z,-0.80
2023-01-29T04:43:15.058Z,-0.80
2023-01-29T04:47:04.561Z,-1.00
2023-01-29T04:50:47.309Z,-1.10
2023-01-29T04:54:18.453Z,-1.30
2023-01-29T04:57:46.532Z,-1.40
2023-01-29T05:01:14.297Z,-1.50
2023-01-29T05:04:39.695Z,-1.60
2023-01-29T05:08:03.140Z,-1.60
2023-01-29T05:11:25.969Z,-1.70
2023-01-29T05:14:49.406Z,-1.70
2023-01-29T05:18:11.503Z,-1.80
2023-01-29T05:21:33.472Z,-1.90
2023-01-29T05:24:55.420Z,-2.00
2023-01-29T05:28:17.928Z,-2.10
2023-01-29T05:31:39.901Z,-2.10
2023-01-29T05:35:02.024Z,-2.20
2023-01-29T05:38:24.200Z,-2.30
2023-01-29T05:41:46.185Z,-2.30
2023-01-29T05:45:08.947Z,-2.30
2023-01-29T05:48:32.169Z,-2.40
2023-01-29T05:51:54.237Z,-2.40
2023-01-29T05:55:16.309Z,-2.50
2023-01-29T05:58:38.339Z,-2.50
2023-01-29T06:02:00.312Z,-2.60
2023-01-29T06:05:22.328Z,-2.60
2023-01-29T06:08:44.269Z,-2.60
2023-01-29T06:12:07.924Z,-2.60
2023-01-29T06:15:29.868Z,-2.60
2023-01-29T06:18:51.795Z,-2.60
2023-01-29T06:22:13.951Z,-2.50
2023-01-29T06:25:35.935Z,-2.50
2023-01-29T06:28:57.860Z,-2.50
2023-01-29T06:32:19.901Z,-2.60
2023-01-29T06:35:41.913Z,-2.70
2023-01-29T06:39:04.218Z,-2.80
2023-01-29T06:42:28.100Z,-2.90
2023-01-29T06:45:50.917Z,-2.90
2023-01-29T06:49:13.007Z,-2.90
2023-01-29T06:52:34.942Z,-2.90
2023-01-29T06:55:56.890Z,-2.80
2023-01-29T06:59:18.837Z,-2.80
2023-01-29T07:02:40.754Z,-2.70
2023-01-29T07:06:03.186Z,-2.60
2023-01-29T07:09:25.245Z,-2.40
2023-01-29T07:12:47.253Z,-2.10
2023-01-29T07:16:10.244Z,-1.90
2023-01-29T07:19:32.188Z,-1.70
2023-01-29T07:22:54.513Z,-1.50
2023-01-29T07:26:17.015Z,-1.50
2023-01-29T07:29:38.936Z,-1.40
2023-01-29T07:33:07.437Z,-1.20
2023-01-29T07:36:29.882Z,-1.10
2023-01-29T07:39:51.925Z,-1.10
2023-01-29T07:43:13.982Z,-1.00
2023-01-29T07:46:35.960Z,-1.10
2023-01-29T07:49:57.953Z,-1.10
2023-01-29T07:53:19.911Z,-1.10
2023-01-29T07:56:41.986Z,-1.10
2023-01-29T08:00:04.326Z,-1.10
2023-01-29T08:03:34.231Z,-1.10
2023-01-29T08:06:56.257Z,-1.00
2023-01-29T08:10:18.707Z,-0.80
2023-01-29T08:13:40.918Z,0.40
2023-01-29T08:17:02.820Z,2.70
2023-01-29T08:20:25.183Z,5.20
2023-01-29T08:23:47.112Z,7.10
2023-01-29T08:27:09.216Z,8.70
2023-01-29T08:30:33.496Z,10.10
2023-01-29T08:33:55.762Z,11.20
2023-01-29T08:37:17.705Z,12.30
2023-01-29T08:40:39.647Z,13.30
2023-01-29T08:44:04.368Z,13.70
2023-01-29T08:47:28.052Z,13.60
2023-01-29T08:50:51.430Z,13.80
2023-01-29T08:54:13.370Z,13.90
2023-01-29T08:57:35.413Z,14.50
2023-01-29T09:00:57.449Z,15.00
2023-01-29T09:04:19.389Z,15.50
2023-01-29T09:07:41.356Z,15.80
2023-01-29T09:11:03.828Z,15.80
2023-01-29T09:14:25.815Z,15.20
2023-01-29T09:17:49.486Z,14.90
2023-01-29T09:21:11.681Z,14.90
2023-01-29T09:24:35.068Z,14.80
2023-01-29T09:27:57.000Z,15.10
2023-01-29T09:31:19.279Z,15.90
2023-01-29T09:34:41.344Z,16.40
2023-01-29T09:38:03.337Z,16.20
2023-01-29T09:41:51.612Z,16.00
2023-01-29T09:45:21.062Z,15.80
2023-01-29T09:48:44.283Z,15.70
2023-01-29T09:52:14.502Z,15.80
2023-01-29T09:55:59.850Z,15.70
2023-01-29T09:59:23.860Z,15.70
2023-01-29T10:03:21.421Z,15.30
2023-01-29T10:06:56.653Z,15.20
2023-01-29T10:10:43.204Z,15.20
2023-01-29T10:14:05.155Z,14.50
2023-01-29T10:17:49.503Z,14.20
2023-01-29T10:21:30.247Z,13.20
2023-01-29T10:24:57.594Z,13.40
2023-01-29T10:28:43.251Z,13.30
2023-01-29T10:32:06.026Z,13.60
2023-01-29T10:35:39.635Z,13.50
2023-01-29T10:39:01.762Z,13.50
2023-01-29T10:42:31.047Z,13.10
2023-01-29T10:46:18.748Z,13.50
2023-01-29T10:49:40.670Z,13.00
2023-01-29T10:53:05.728Z,12.20
2023-01-29T10:56:57.687Z,12.40
2023-01-29T11:00:27.317Z,12.30
2023-01-29T11:04:02.261Z,11.80
2023-01-29T11:07:25.110Z,11.80
2023-01-29T11:11:01.835Z,11.20
2023-01-29T11:15:12.656Z,10.60
2023-01-29T11:18:58.852Z,10.10
2023-01-29T11:22:22.745Z,10.60
2023-01-29T11:25:53.268Z,10.40
2023-01-29T11:29:48.103Z,10.40
2023-01-29T11:33:22.026Z,10.50
2023-01-29T11:36:45.040Z,10.60
2023-01-29T11:40:19.130Z,10.70
2023-01-29T11:43:41.307Z,10.80
2023-01-29T11:47:26.156Z,10.90
2023-01-29T11:50:58.138Z,10.30
2023-01-29T11:54:22.935Z,10.50
2023-01-29T11:57:54.209Z,10.30
2023-01-29T12:01:23.473Z,10.20
2023-01-29T12:04:45.886Z,10.40
2023-01-29T12:08:18.334Z,9.80
2023-01-29T12:11:40.305Z,9.40
2023-01-29T12:15:09.182Z,9.50
2023-01-29T12:18:41.966Z,9.40
2023-01-29T12:22:06.170Z,9.30
2023-01-29T12:25:49.941Z,9.20
2023-01-29T12:29:31.036Z,8.80
2023-01-29T12:33:18.696Z,8.70
2023-01-29T12:37:32.802Z,8.80
2023-01-29T12:41:41.620Z,8.80
2023-01-29T12:45:10.845Z,8.80
2023-01-29T12:48:39.617Z,8.90
2023-01-29T12:52:07.401Z,9.00
2023-01-29T12:55:37.346Z,8.90
2023-01-29T12:59:04.761Z,8.70
2023-01-29T13:02:39.985Z,8.70
2023-01-29T13:06:15.207Z,8.60
2023-01-29T13:09:39.709Z,8.40
2023-01-29T13:13:23.657Z,8.40
2023-01-29T13:16:49.528Z,8.40
2023-01-29T13:20:28.000Z,8.40
2023-01-29T13:24:00.264Z,8.40
2023-01-29T13:27:34.243Z,8.30
2023-01-29T13:31:17.287Z,8.20
2023-01-29T13:34:48.224Z,8.20
2023-01-29T13:38:33.374Z,8.20
2023-01-29T13:41:57.882Z,8.10
2023-01-29T13:45:35.198Z,8.20
2023-01-29T13:49:00.941Z,8.00
2023-01-29T13:52:44.710Z,8.10
2023-01-29T13:56:34.495Z,8.00
2023-01-29T13:59:58.832Z,8.00
2023-01-29T14:03:26.899Z,8.00
2023-01-29T14:07:03.029Z,8.00
2023-01-29T14:10:30.411Z,8.00
2023-01-29T14:13:52.485Z,7.90
2023-01-29T14:17:16.198Z,7.90
2023-01-29T14:20:46.019Z,7.80
2023-01-29T14:24:09.795Z,7.80
2023-01-29T14:27:32.757Z,7.70
2023-01-29T14:30:55.579Z,7.70
2023-01-29T14:34:20.692Z,7.60
2023-01-29T14:37:48.434Z,7.50
2023-01-29T14:41:26.735Z,7.50
2023-01-29T14:45:15.186Z,7.30
2023-01-29T14:48:48.777Z,7.20
2023-01-29T14:52:13.201Z,7.20
2023-01-29T14:55:44.150Z,7.10
2023-01-29T14:59:13.817Z,7.00
2023-01-29T15:02:44.004Z,6.90
2023-01-29T15:06:08.065Z,6.80
2023-01-29T15:09:54.181Z,6.70
2023-01-29T15:13:33.610Z,6.70
2023-01-29T15:17:19.703Z,6.50
2023-01-29T15:20:43.546Z,6.50
2023-01-29T15:24:06.872Z,6.50
2023-01-29T15:27:29.177Z,6.40
2023-01-29T15:30:56.145Z,6.40
2023-01-29T15:34:18.669Z,6.30
2023-01-29T15:37:40.589Z,6.30
2023-01-29T15:41:18.421Z,6.20
2023-01-29T15:44:46.203Z,6.20
2023-01-29T15:48:15.952Z,6.00
2023-01-29T15:51:39.529Z,5.90
2023-01-29T15:55:07.301Z,5.70
2023-01-29T15:58:32.172Z,5.60
2023-01-29T16:01:54.813Z,5.40
2023-01-29T16:05:22.008Z,5.20
2023-01-29T16:08:48.548Z,5.00
2023-01-29T16:12:12.670Z,4.70
2023-01-29T16:15:40.342Z,4.60
2023-01-29T16:19:13.285Z,4.50
2023-01-29T16:22:37.791Z,4.30
2023-01-29T16:26:07.050Z,4.00
2023-01-29T16:29:32.242Z,3.80
2023-01-29T16:33:01.799Z,3.60
2023-01-29T16:36:28.128Z,3.50
2023-01-29T16:39:52.779Z,3.30
2023-01-29T16:43:17.568Z,3.20
2023-01-29T16:46:46.794Z,3.10
2023-01-29T16:50:38.286Z,3.00
2023-01-29T16:54:07.635Z,2.80
2023-01-29T16:57:33.731Z,2.70
2023-01-29T17:01:03.533Z,2.70
2023-01-29T17:04:25.724Z,2.60
2023-01-29T17:07:48.115Z,2.60
2023-01-29T17:11:12.407Z,2.50
2023-01-29T17:14:36.567Z,2.40
2023-01-29T17:17:58.512Z,2.40
2023-01-29T17:21:20.501Z,2.30
2023-01-29T17:24:43.165Z,2.20
2023-01-29T17:28:05.342Z,2.20
2023-01-29T17:31:27.823Z,2.10
2023-01-29T17:34:49.929Z,2.10
2023-01-29T17:38:25.581Z,2.10
2023-01-29T17:41:54.865Z,2.00
2023-01-29T17:45:17.321Z,2.00
2023-01-29T17:48:39.525Z,2.00
2023-01-29T17:52:01.900Z,1.90
2023-01-29T17:55:23.953Z,1.90
2023-01-29T17:58:45.979Z,1.80
2023-01-29T18:02:08.780Z,1.70
2023-01-29T18:05:50.810Z,1.70
2023-01-29T18:09:14.223Z,1.60
2023-01-29T18:12:36.174Z,1.50
2023-01-29T18:15:58.173Z,1.50
2023-01-29T18:19:23.113Z,1.50
2023-01-29T18:22:45.452Z,1.40
2023-01-29T18:26:07.790Z,1.40
2023-01-29T18:29:30.515Z,1.30
2023-01-29T18:32:53.350Z,1.20
2023-01-29T18:36:15.542Z,1.20
2023-01-29T18:39:37.575Z,1.10
2023-01-29T18:43:00.923Z,1.10
2023-01-29T18:46:24.386Z,1.00
2023-01-29T18:49:46.414Z,0.90
2023-01-29T18:53:08.913Z,0.90
2023-01-29T18:56:30.911Z,0.90
2023-01-29T18:59:52.994Z,0.90
2023-01-29T19:03:15.683Z,0.90
2023-01-29T19:06:38.038Z,0.90
2023-01-29T19:10:02.155Z,0.90
2023-01-29T19:13:24.152Z,0.80
2023-01-29T19:16:46.564Z,0.80
2023-01-29T19:20:09.711Z,0.70
2023-01-29T19:23:31.889Z,0.60
2023-01-29T19:26:54.665Z,0.60
2023-01-29T19:30:16.989Z,0.50
2023-01-29T19:33:39.405Z,0.60
2023-01-29T19:37:01.361Z,0.60
2023-01-29T19:40:24.351Z,0.60
2023-01-29T19:43:48.172Z,0.70
2023-01-29T19:47:10.144Z,0.70
2023-01-29T19:50:32.091Z,0.60
2023-01-29T19:53:54.143Z,0.60
2023-01-29T19:57:16.140Z,0.60
2023-01-29T20:00:38.167Z,0.50
2023-01-29T20:04:00.500Z,0.40
2023-01-29T20:07:22.922Z,0.30
2023-01-29T20:10:46.155Z,0.20
2023-01-29T20:14:08.171Z,0.10
2023-01-29T20:17:30.120Z,0.00
2023-01-29T20:20:53.484Z,-0.10
2023-01-29T20:24:15.760Z,-0.20
2023-01-29T20:27:37.706Z,-0.30
2023-01-29T20:30:59.751Z,-0.40
2023-01-29T20:34:22.483Z,-0.50
2023-01-29T20:37:44.435Z,-0.60
2023-01-29T20:41:15.852Z,-0.70
2023-01-29T20:44:37.783Z,-0.70
2023-01-29T20:47:59.854Z,-0.80
2023-01-29T20:51:22.186Z,-0.90
2023-01-29T20:54:44.297Z,-0.90
2023-01-29T20:58:06.843Z,-0.90
2023-01-29T21:01:29.352Z,-0.90
2023-01-29T21:04:51.306Z,-0.90
2023-01-29T21:08:13.346Z,-1.00
2023-01-29T21:11:35.508Z,-1.00
2023-01-29T21:14:57.442Z,-1.00
2023-01-29T21:18:20.160Z,-1.10
2023-01-29T21:21:42.114Z,-1.10
2023-01-29T21:25:04.330Z,-1.10
2023-01-29T21:28:26.300Z,-1.10
2023-01-29T21:31:48.386Z,-1.20
2023-01-29T21:35:10.772Z,-1.10
2023-01-29T21:38:33.289Z,-1.10
2023-01-29T21:42:13.567Z,-0.90
2023-01-29T21:45:35.858Z,-0.70
2023-01-29T21:48:58.742Z,-0.60
2023-01-29T21:52:20.723Z,-0.70
2023-01-29T21:55:42.799Z,-0.70
2023-01-29T21:59:04.764Z,-0.70
2023-01-29T22:02:30.865Z,-0.70
2023-01-29T22:05:53.393Z,-0.80
2023-01-29T22:09:16.064Z,-0.70
2023-01-29T22:12:38.025Z,-0.70
2023-01-29T22:16:00.177Z,-0.70
2023-01-29T22:19:22.194Z,-0.80
2023-01-29T22:22:44.403Z,-0.80
2023-01-29T22:26:08.939Z,-0.90
2023-01-29T22:29:31.053Z,-1.00
2023-01-29T22:32:53.060Z,-1.20
2023-01-29T22:36:15.192Z,-1.20
2023-01-29T22:39:37.180Z,-1.30
2023-01-29T22:42:59.125Z,-1.40
2023-01-29T22:46:21.122Z,-1.50
2023-01-29T22:49:45.658Z,-1.60
2023-01-29T22:53:08.723Z,-1.70
2023-01-29T22:56:31.289Z,-1.80
2023-01-29T22:59:53.407Z,-1.80
2023-01-29T23:03:15.442Z,-1.90
2023-01-29T23:06:37.459Z,-1.90
2023-01-29T23:09:59.413Z,-2.00
2023-01-29T23:13:21.371Z,-2.00
2023-01-29T23:16:43.316Z,-2.00
2023-01-29T23:20:05.776Z,-2.00
2023-01-29T23:23:32.101Z,-1.90
2023-01-29T23:27:12.827Z,-1.90
2023-01-29T23:30:34.807Z,-1.90
2023-01-29T23:33:56.977Z,-1.90
2023-01-29T23:37:18.912Z,-1.90
2023-01-29T23:40:40.860Z,-2.00
2023-01-29T23:44:02.881Z,-2.00
2023-01-29T23:47:24.822Z,-2.10
2023-01-29T23:50:47.534Z,-2.20
2023-01-29T23:54:09.460Z,-2.30
2023-01-29T23:57:31.391Z,-2.40
